Meknes, Morocco
Current Conditions -  °F | °C
As of 2:00 PM on Saturday 25 Oct 2014 (Local Time) from GMFF Reporting Station
Clear Clear  
Wind Chill: 84°   Ceiling: Unl
Heat Index: 84°   Visibility: 6mi
Dew Point: 32°   Wind: 7mph
Humidity: 15%   Direction: 330°NNW
Pressure: 30.06"   Gusts: NA
Location:  33.9°N, 5.56°W
Report Text: GMFF 251300Z 33006KT 270V360 CAVOK 29/M00 Q1018 NOSIG
Loading
Personal Weather Stations






























Interactive Weather Map
Tropical Storm Tracking
New forecast layout! Learn more

10-Day Weather Forecast

Advertisements
Track Severe Weather on mobile